createdAt,value
2022-11-14T00:00:03.267Z,13.35
2022-11-14T00:02:50.186Z,14.57
2022-11-14T00:05:42.463Z,16.08
2022-11-14T00:08:29.627Z,14.38
2022-11-14T00:11:16.865Z,13.77
2022-11-14T00:14:04.056Z,15.63
2022-11-14T00:17:03.518Z,14.18
2022-11-14T00:19:50.307Z,17.42
2022-11-14T00:22:38.366Z,15.23
2022-11-14T00:25:24.917Z,14.30
2022-11-14T00:28:12.028Z,14.10
2022-11-14T00:30:58.817Z,13.68
2022-11-14T00:33:45.647Z,12.02
2022-11-14T00:36:32.423Z,14.73
2022-11-14T00:39:20.811Z,15.73
2022-11-14T00:42:07.482Z,14.35
2022-11-14T00:44:54.277Z,13.98
2022-11-14T00:47:41.077Z,12.65
2022-11-14T00:50:28.048Z,12.57
2022-11-14T00:53:15.185Z,10.85
2022-11-14T00:56:03.561Z,12.00
2022-11-14T00:58:50.712Z,11.63
2022-11-14T01:01:37.518Z,12.73
2022-11-14T01:04:24.419Z,11.40
2022-11-14T01:07:11.642Z,12.52
2022-11-14T01:09:58.621Z,11.10
2022-11-14T01:12:46.670Z,13.15
2022-11-14T01:15:33.438Z,11.35
2022-11-14T01:18:22.684Z,10.38
2022-11-14T01:21:10.747Z,12.07
2022-11-14T01:23:58.158Z,10.30
2022-11-14T01:26:44.994Z,12.55
2022-11-14T01:29:33.318Z,12.35
2022-11-14T01:32:20.026Z,12.38
2022-11-14T01:35:07.227Z,12.02
2022-11-14T01:37:53.994Z,11.90
2022-11-14T01:40:43.937Z,13.20
2022-11-14T01:43:33.323Z,12.95
2022-11-14T01:46:25.112Z,11.18
2022-11-14T01:49:19.339Z,10.70
2022-11-14T01:52:08.306Z,12.45
2022-11-14T01:54:58.834Z,11.88
2022-11-14T01:57:48.097Z,12.43
2022-11-14T02:00:35.363Z,12.48
2022-11-14T02:03:23.548Z,13.27
2022-11-14T02:06:14.429Z,12.10
2022-11-14T02:09:05.043Z,12.15
2022-11-14T02:11:54.750Z,11.52
2022-11-14T02:14:45.404Z,11.60
2022-11-14T02:17:33.561Z,11.00
2022-11-14T02:20:23.604Z,10.30
2022-11-14T02:23:11.968Z,10.13
2022-11-14T02:25:59.134Z,11.48
2022-11-14T02:28:46.757Z,11.40
2022-11-14T02:31:34.042Z,10.57
2022-11-14T02:34:21.058Z,12.60
2022-11-14T02:37:09.530Z,9.75
2022-11-14T02:39:56.210Z,10.00
2022-11-14T02:42:43.271Z,10.82
2022-11-14T02:45:30.184Z,9.63
2022-11-14T02:48:17.103Z,11.45
2022-11-14T02:51:03.594Z,10.00
2022-11-14T02:53:52.126Z,11.50
2022-11-14T02:56:39.192Z,12.93
2022-11-14T02:59:26.167Z,13.10
2022-11-14T03:02:33.426Z,12.90
2022-11-14T03:05:20.384Z,13.38
2022-11-14T03:08:07.710Z,13.57
2022-11-14T03:10:56.768Z,11.70
2022-11-14T03:13:43.878Z,12.38
2022-11-14T03:16:30.773Z,10.50
2022-11-14T03:19:18.223Z,11.68
2022-11-14T03:22:05.489Z,12.95
2022-11-14T03:24:52.386Z,12.73
2022-11-14T03:27:40.290Z,14.43
2022-11-14T03:30:27.093Z,15.25
2022-11-14T03:33:13.739Z,13.45
2022-11-14T03:36:00.884Z,12.80
2022-11-14T03:38:48.029Z,12.00
2022-11-14T03:41:34.987Z,11.95
2022-11-14T03:44:23.688Z,12.00
2022-11-14T03:47:10.258Z,11.95
2022-11-14T03:49:57.030Z,11.93
2022-11-14T03:52:43.588Z,10.88
2022-11-14T03:55:30.470Z,9.98
2022-11-14T03:58:17.423Z,9.50
2022-11-14T04:01:05.759Z,9.02
2022-11-14T04:03:52.437Z,8.30
2022-11-14T04:06:39.175Z,8.15
2022-11-14T04:09:26.332Z,7.93
2022-11-14T04:12:15.864Z,9.45
2022-11-14T04:15:03.094Z,9.40
2022-11-14T04:17:51.241Z,7.35
2022-11-14T04:20:38.416Z,8.90
2022-11-14T04:23:25.422Z,8.95
2022-11-14T04:26:12.222Z,11.15
2022-11-14T04:28:59.024Z,10.38
2022-11-14T04:31:45.818Z,10.00
2022-11-14T04:34:34.409Z,8.80
2022-11-14T04:37:21.293Z,10.23
2022-11-14T04:40:10.062Z,11.45
2022-11-14T04:42:56.968Z,11.73
2022-11-14T04:45:43.973Z,11.43
2022-11-14T04:48:31.270Z,11.23
2022-11-14T04:51:19.742Z,11.30
2022-11-14T04:54:06.928Z,12.50
2022-11-14T04:56:53.858Z,12.85
2022-11-14T04:59:40.667Z,11.68
2022-11-14T05:02:27.657Z,10.63
2022-11-14T05:05:14.736Z,12.27
2022-11-14T05:08:02.965Z,13.63
2022-11-14T05:10:49.787Z,13.20
2022-11-14T05:13:36.665Z,12.50
2022-11-14T05:16:23.662Z,12.25
2022-11-14T05:19:10.651Z,12.02
2022-11-14T05:21:57.303Z,13.65
2022-11-14T05:24:58.786Z,12.88
2022-11-14T05:27:45.496Z,14.05
2022-11-14T05:30:32.373Z,12.48
2022-11-14T05:33:19.432Z,11.60
2022-11-14T05:36:07.459Z,11.02
2022-11-14T05:38:55.369Z,12.60
2022-11-14T05:41:44.112Z,14.23
2022-11-14T05:44:31.132Z,11.73
2022-11-14T05:47:18.312Z,11.05
2022-11-14T05:50:05.955Z,11.43
2022-11-14T05:52:52.888Z,13.07
2022-11-14T05:55:39.639Z,12.45
2022-11-14T05:58:36.178Z,12.75
2022-11-14T06:01:22.974Z,10.63
2022-11-14T06:04:09.961Z,13.63
2022-11-14T06:06:56.987Z,13.10
2022-11-14T06:09:44.231Z,11.13
2022-11-14T06:12:32.864Z,11.63
2022-11-14T06:15:24.124Z,12.50
2022-11-14T06:18:10.768Z,12.07
2022-11-14T06:21:01.313Z,12.70
2022-11-14T06:23:49.209Z,13.25
2022-11-14T06:26:36.055Z,13.45
2022-11-14T06:29:22.935Z,11.27
2022-11-14T06:32:11.209Z,13.45
2022-11-14T06:34:58.044Z,11.93
2022-11-14T06:37:44.942Z,11.88
2022-11-14T06:40:32.719Z,12.30
2022-11-14T06:43:19.624Z,11.25
2022-11-14T06:46:07.036Z,13.40
2022-11-14T06:48:55.342Z,12.57
2022-11-14T06:51:45.124Z,12.27
2022-11-14T06:54:32.022Z,12.35
2022-11-14T06:57:18.687Z,12.63
2022-11-14T07:00:06.405Z,12.50
2022-11-14T07:02:53.219Z,12.70
2022-11-14T07:05:41.345Z,11.57
2022-11-14T07:08:28.774Z,11.13
2022-11-14T07:11:23.273Z,10.57
2022-11-14T07:14:11.364Z,10.93
2022-11-14T07:17:01.813Z,9.82
2022-11-14T07:19:48.782Z,11.82
2022-11-14T07:22:37.218Z,11.43
2022-11-14T07:25:23.726Z,12.77
2022-11-14T07:28:10.825Z,11.55
2022-11-14T07:30:57.489Z,13.77
2022-11-14T07:33:46.307Z,11.30
2022-11-14T07:36:33.220Z,11.55
2022-11-14T07:39:21.739Z,11.27
2022-11-14T07:42:08.139Z,10.07
2022-11-14T07:44:54.857Z,11.20
2022-11-14T07:47:41.626Z,12.27
2022-11-14T07:50:29.613Z,11.15
2022-11-14T07:53:17.848Z,10.68
2022-11-14T07:56:09.828Z,11.50
2022-11-14T07:58:56.535Z,11.00
2022-11-14T08:01:43.541Z,11.60
2022-11-14T08:04:30.468Z,10.60
2022-11-14T08:07:17.500Z,11.40
2022-11-14T08:10:04.650Z,10.10
2022-11-14T08:13:30.487Z,11.25
2022-11-14T08:16:13.702Z,9.32
2022-11-14T08:19:01.649Z,11.15
2022-11-14T08:21:48.703Z,10.73
2022-11-14T08:24:35.696Z,10.52
2022-11-14T08:27:22.598Z,10.23
2022-11-14T08:30:12.333Z,11.57
2022-11-14T08:33:02.310Z,9.95
2022-11-14T08:35:49.092Z,7.45
2022-11-14T08:38:35.916Z,7.50
2022-11-14T08:41:23.121Z,7.75
2022-11-14T08:44:09.906Z,6.97
2022-11-14T08:47:00.472Z,6.55
2022-11-14T08:49:46.986Z,6.35
2022-11-14T08:52:34.099Z,6.45
2022-11-14T08:55:21.453Z,5.75
2022-11-14T08:58:08.311Z,5.97
2022-11-14T09:00:54.992Z,6.18
2022-11-14T09:03:44.050Z,6.30
2022-11-14T09:06:30.760Z,5.32
2022-11-14T09:09:17.667Z,5.60
2022-11-14T09:12:04.424Z,5.47
2022-11-14T09:14:50.878Z,4.88
2022-11-14T09:17:43.403Z,5.63
2022-11-14T09:20:36.172Z,6.32
2022-11-14T09:23:25.742Z,4.28
2022-11-14T09:26:13.464Z,3.40
2022-11-14T09:29:00.916Z,3.60
2022-11-14T09:31:47.805Z,4.38
2022-11-14T09:34:34.768Z,4.63
2022-11-14T09:37:23.051Z,2.42
2022-11-14T09:40:14.071Z,3.20
2022-11-14T09:43:18.625Z,2.65
2022-11-14T09:46:18.678Z,3.60
2022-11-14T09:49:12.584Z,3.90
2022-11-14T09:52:06.706Z,3.33
2022-11-14T09:55:18.804Z,2.67
2022-11-14T09:58:06.258Z,2.85
2022-11-14T10:01:02.791Z,2.70
2022-11-14T10:04:08.309Z,2.47
2022-11-14T10:07:04.971Z,3.10
2022-11-14T10:10:04.209Z,3.17
2022-11-14T10:13:03.816Z,2.45
2022-11-14T10:15:58.239Z,2.40
2022-11-14T10:19:01.271Z,3.00
2022-11-14T10:22:02.550Z,2.33
2022-11-14T10:25:20.695Z,2.50
2022-11-14T10:28:23.924Z,2.20
2022-11-14T10:31:22.399Z,3.22
2022-11-14T10:34:13.800Z,2.55
2022-11-14T10:37:07.467Z,2.58
2022-11-14T10:39:57.624Z,2.80
2022-11-14T10:42:47.573Z,2.63
2022-11-14T10:45:37.678Z,3.25
2022-11-14T10:48:31.572Z,2.83
2022-11-14T10:51:25.538Z,3.85
2022-11-14T10:54:19.044Z,3.30
2022-11-14T10:57:16.552Z,4.00
2022-11-14T11:00:03.573Z,3.42
2022-11-14T11:02:54.499Z,3.25
2022-11-14T11:05:51.136Z,4.07
2022-11-14T11:09:00.426Z,3.63
2022-11-14T11:11:58.389Z,3.85
2022-11-14T11:14:45.515Z,4.18
2022-11-14T11:17:38.655Z,3.00
2022-11-14T11:20:33.125Z,2.85
2022-11-14T11:23:23.659Z,3.03
2022-11-14T11:26:19.277Z,2.90
2022-11-14T11:29:10.148Z,3.30
2022-11-14T11:31:59.181Z,3.30
2022-11-14T11:34:46.905Z,2.63
2022-11-14T11:37:41.270Z,2.80
2022-11-14T11:40:30.081Z,2.33
2022-11-14T11:43:41.344Z,3.25
2022-11-14T11:46:34.396Z,2.70
2022-11-14T11:49:38.528Z,2.60
2022-11-14T11:52:33.277Z,2.60
2022-11-14T11:55:26.495Z,2.10
2022-11-14T11:58:22.540Z,2.63
2022-11-14T12:01:12.100Z,2.38
2022-11-14T12:03:59.185Z,2.20
2022-11-14T12:06:51.057Z,2.50
2022-11-14T12:10:09.190Z,2.20
2022-11-14T12:13:31.207Z,2.67
2022-11-14T12:16:41.270Z,2.20
2022-11-14T12:19:43.244Z,2.00
2022-11-14T12:22:43.900Z,1.90
2022-11-14T12:25:42.385Z,2.05
2022-11-14T12:28:47.013Z,1.80
2022-11-14T12:31:38.601Z,1.98
2022-11-14T12:34:30.206Z,1.85
2022-11-14T12:37:21.983Z,1.80
2022-11-14T12:40:19.939Z,1.65
2022-11-14T12:43:36.099Z,2.15
2022-11-14T12:46:23.987Z,2.17
2022-11-14T12:49:40.590Z,2.15
2022-11-14T12:52:48.826Z,1.58
2022-11-14T12:56:13.011Z,2.00
2022-11-14T12:59:22.175Z,1.65
2022-11-14T13:02:34.552Z,2.10
2022-11-14T13:05:41.536Z,2.35
2022-11-14T13:09:00.529Z,2.03
2022-11-14T13:12:07.175Z,2.30
2022-11-14T13:15:14.754Z,2.60
2022-11-14T13:18:31.727Z,2.70
2022-11-14T13:21:45.016Z,2.35
2022-11-14T13:25:22.675Z,2.55
2022-11-14T13:28:48.562Z,2.88
2022-11-14T13:31:50.152Z,2.80
2022-11-14T13:34:51.676Z,5.25
2022-11-14T13:37:59.048Z,2.45
2022-11-14T13:40:53.921Z,2.13
2022-11-14T13:43:57.395Z,2.83
2022-11-14T13:47:05.344Z,2.15
2022-11-14T13:50:01.775Z,2.60
2022-11-14T13:52:50.836Z,2.20
2022-11-14T13:55:51.348Z,2.40
2022-11-14T13:59:26.488Z,2.55
2022-11-14T14:02:53.486Z,2.67
2022-11-14T14:06:05.311Z,2.50
2022-11-14T14:09:09.466Z,3.03
2022-11-14T14:12:24.658Z,3.15
2022-11-14T14:15:21.774Z,2.85
2022-11-14T14:18:20.259Z,2.63
2022-11-14T14:21:18.463Z,2.80
2022-11-14T14:24:16.878Z,3.10
2022-11-14T14:27:16.907Z,3.10
2022-11-14T14:30:15.180Z,2.90
2022-11-14T14:33:12.225Z,3.25
2022-11-14T14:35:59.162Z,2.95
2022-11-14T14:38:46.906Z,3.55
2022-11-14T14:41:36.335Z,3.42
2022-11-14T14:44:27.412Z,3.05
2022-11-14T14:47:18.367Z,2.80
2022-11-14T14:50:09.329Z,3.60
2022-11-14T14:52:58.178Z,3.78
2022-11-14T14:55:54.069Z,4.45
2022-11-14T14:58:42.416Z,3.33
2022-11-14T15:01:35.318Z,3.90
2022-11-14T15:04:24.371Z,3.35
2022-11-14T15:07:21.327Z,3.13
2022-11-14T15:10:09.426Z,3.92
2022-11-14T15:12:57.451Z,3.15
2022-11-14T15:15:45.934Z,4.32
2022-11-14T15:18:34.528Z,3.25
2022-11-14T15:21:29.602Z,3.25
2022-11-14T15:24:17.882Z,3.90
2022-11-14T15:27:06.665Z,3.95
2022-11-14T15:29:55.376Z,3.38
2022-11-14T15:32:51.539Z,4.10
2022-11-14T15:35:39.740Z,3.72
2022-11-14T15:38:43.646Z,3.65
2022-11-14T15:41:32.542Z,3.42
2022-11-14T15:44:32.979Z,3.97
2022-11-14T15:47:23.205Z,4.10
2022-11-14T15:50:29.365Z,4.28
2022-11-14T15:53:23.878Z,4.70
2022-11-14T15:56:13.553Z,4.00
2022-11-14T15:59:00.503Z,3.45
2022-11-14T16:01:50.495Z,4.90
2022-11-14T16:04:44.407Z,4.20
2022-11-14T16:07:35.521Z,4.60
2022-11-14T16:10:24.955Z,4.18
2022-11-14T16:13:12.523Z,4.30
2022-11-14T16:15:59.333Z,3.35
2022-11-14T16:18:46.231Z,4.25
2022-11-14T16:21:33.446Z,3.65
2022-11-14T16:24:23.049Z,4.15
2022-11-14T16:27:09.647Z,4.35
2022-11-14T16:29:57.003Z,3.72
2022-11-14T16:32:47.065Z,4.15
2022-11-14T16:35:33.561Z,4.70
2022-11-14T16:38:20.897Z,4.85
2022-11-14T16:41:09.727Z,4.32
2022-11-14T16:43:57.866Z,4.32
2022-11-14T16:46:44.803Z,4.20
2022-11-14T16:49:31.473Z,4.50
2022-11-14T16:52:19.883Z,5.07
2022-11-14T16:55:07.462Z,4.50
2022-11-14T16:57:55.984Z,4.97
2022-11-14T17:00:44.046Z,5.20
2022-11-14T17:03:32.926Z,4.82
2022-11-14T17:06:19.898Z,4.70
2022-11-14T17:09:25.808Z,4.70
2022-11-14T17:12:12.560Z,4.60
2022-11-14T17:15:01.047Z,5.75
2022-11-14T17:17:50.286Z,4.85
2022-11-14T17:20:38.827Z,5.30
2022-11-14T17:23:25.616Z,5.20
2022-11-14T17:26:13.967Z,5.45
2022-11-14T17:29:01.098Z,4.90
2022-11-14T17:31:49.578Z,5.25
2022-11-14T17:34:36.626Z,5.65
2022-11-14T17:37:23.541Z,5.82
2022-11-14T17:40:15.438Z,5.15
2022-11-14T17:43:02.581Z,5.30
2022-11-14T17:45:55.742Z,6.57
2022-11-14T17:48:44.631Z,6.00
2022-11-14T17:51:31.343Z,5.20
2022-11-14T17:54:17.923Z,5.70
2022-11-14T17:57:05.016Z,6.95
2022-11-14T17:59:51.837Z,5.93
2022-11-14T18:02:42.566Z,5.47
2022-11-14T18:05:30.704Z,5.28
2022-11-14T18:08:17.164Z,4.60
2022-11-14T18:11:06.105Z,4.97
2022-11-14T18:13:56.299Z,6.50
2022-11-14T18:17:10.577Z,5.25
2022-11-14T18:20:00.315Z,5.72
2022-11-14T18:22:48.759Z,5.03
2022-11-14T18:25:35.275Z,5.70
2022-11-14T18:28:22.881Z,4.88
2022-11-14T18:31:11.246Z,3.90
2022-11-14T18:33:58.959Z,5.90
2022-11-14T18:36:45.480Z,5.88
2022-11-14T18:39:33.791Z,5.78
2022-11-14T18:42:20.532Z,6.78
2022-11-14T18:45:08.446Z,6.05
2022-11-14T18:47:55.085Z,7.00
2022-11-14T18:50:42.218Z,7.28
2022-11-14T18:53:32.193Z,5.80
2022-11-14T18:56:21.888Z,6.05
2022-11-14T18:59:09.370Z,7.15
2022-11-14T19:01:56.348Z,7.05
2022-11-14T19:04:43.689Z,7.90
2022-11-14T19:07:54.005Z,6.80
2022-11-14T19:10:41.177Z,7.63
2022-11-14T19:13:29.448Z,7.40
2022-11-14T19:16:16.558Z,6.55
2022-11-14T19:19:04.512Z,8.00
2022-11-14T19:21:55.067Z,6.63
2022-11-14T19:24:43.141Z,6.55
2022-11-14T19:27:33.197Z,6.20
2022-11-14T19:30:21.832Z,7.70
2022-11-14T19:33:08.612Z,6.55
2022-11-14T19:35:55.268Z,6.30
2022-11-14T19:38:41.991Z,6.18
2022-11-14T19:41:31.513Z,5.30
2022-11-14T19:44:18.431Z,6.45
2022-11-14T19:47:06.823Z,6.40
2022-11-14T19:49:53.588Z,6.50
2022-11-14T19:52:40.369Z,6.07
2022-11-14T19:55:26.901Z,6.30
2022-11-14T19:58:13.654Z,5.60
2022-11-14T20:01:03.257Z,6.07
2022-11-14T20:03:55.195Z,5.80
2022-11-14T20:06:43.102Z,5.80
2022-11-14T20:09:29.905Z,6.35
2022-11-14T20:12:16.805Z,6.38
2022-11-14T20:15:04.030Z,6.68
2022-11-14T20:17:50.578Z,6.82
2022-11-14T20:20:38.901Z,6.43
2022-11-14T20:23:32.137Z,6.22
2022-11-14T20:26:21.351Z,5.93
2022-11-14T20:29:09.175Z,5.97
2022-11-14T20:32:14.521Z,5.50
2022-11-14T20:35:02.459Z,5.30
2022-11-14T20:37:50.696Z,5.60
2022-11-14T20:40:37.441Z,5.22
2022-11-14T20:43:24.151Z,5.85
2022-11-14T20:46:13.998Z,5.00
2022-11-14T20:49:00.671Z,5.68
2022-11-14T20:51:49.934Z,4.55
2022-11-14T20:54:37.936Z,4.65
2022-11-14T20:57:24.504Z,4.03
2022-11-14T21:00:12.346Z,4.80
2022-11-14T21:02:59.193Z,4.43
2022-11-14T21:05:45.767Z,5.05
2022-11-14T21:08:35.205Z,4.05
2022-11-14T21:11:23.589Z,4.35
2022-11-14T21:14:12.119Z,5.45
2022-11-14T21:16:59.128Z,4.45
2022-11-14T21:19:45.873Z,4.20
2022-11-14T21:22:32.908Z,4.85
2022-11-14T21:25:20.067Z,4.90
2022-11-14T21:28:08.609Z,4.68
2022-11-14T21:30:55.752Z,5.15
2022-11-14T21:33:42.849Z,3.88
2022-11-14T21:36:44.250Z,4.07
2022-11-14T21:39:32.230Z,3.95
2022-11-14T21:42:19.117Z,4.60
2022-11-14T21:45:08.578Z,4.20
2022-11-14T21:47:55.597Z,4.35
2022-11-14T21:50:42.525Z,4.40
2022-11-14T21:53:29.948Z,4.40
2022-11-14T21:56:19.245Z,3.72
2022-11-14T21:59:16.403Z,4.50
2022-11-14T22:02:22.799Z,4.15
2022-11-14T22:05:09.456Z,3.67
2022-11-14T22:07:56.230Z,4.35
2022-11-14T22:10:42.742Z,3.35
2022-11-14T22:13:31.632Z,3.25
2022-11-14T22:16:35.230Z,4.88
2022-11-14T22:19:23.962Z,3.35
2022-11-14T22:22:10.849Z,3.80
2022-11-14T22:24:57.540Z,4.40
2022-11-14T22:27:44.052Z,3.97
2022-11-14T22:30:30.974Z,3.47
2022-11-14T22:33:18.221Z,3.70
2022-11-14T22:36:08.545Z,3.85
2022-11-14T22:38:56.638Z,3.63
2022-11-14T22:41:43.662Z,4.43
2022-11-14T22:44:34.860Z,3.35
2022-11-14T22:47:21.746Z,3.40
2022-11-14T22:50:09.476Z,4.50
2022-11-14T22:52:57.864Z,3.33
2022-11-14T22:55:48.782Z,3.38
2022-11-14T22:58:36.820Z,3.70
2022-11-14T23:01:25.767Z,5.25
2022-11-14T23:04:12.508Z,3.50
2022-11-14T23:06:59.709Z,3.83
2022-11-14T23:09:48.073Z,3.40
2022-11-14T23:12:34.689Z,3.22
2022-11-14T23:15:21.638Z,3.40
2022-11-14T23:18:08.195Z,3.50
2022-11-14T23:20:55.434Z,4.00
2022-11-14T23:23:42.757Z,3.22
2022-11-14T23:26:32.336Z,3.80
2022-11-14T23:29:18.894Z,3.70
2022-11-14T23:32:05.992Z,3.30
2022-11-14T23:34:52.907Z,3.88
2022-11-14T23:37:39.757Z,2.83
2022-11-14T23:40:26.727Z,3.45
2022-11-14T23:43:18.706Z,2.83
2022-11-14T23:46:05.338Z,3.42
2022-11-14T23:48:53.594Z,3.33
2022-11-14T23:51:40.398Z,3.58
2022-11-14T23:54:27.082Z,3.00
2022-11-14T23:57:14.090Z,3.22
